createdAt,value
2022-11-19T00:01:00.841Z,99403.59
2022-11-19T00:02:02.801Z,99401.09
2022-11-19T00:03:04.275Z,99403.59
2022-11-19T00:04:07.158Z,99396.03
2022-11-19T00:05:14.635Z,99401.63
2022-11-19T00:06:19.695Z,99401.34
2022-11-19T00:07:25.168Z,99399.97
2022-11-19T00:08:26.710Z,99398.81
2022-11-19T00:09:43.205Z,99397.72
2022-11-19T00:10:44.886Z,99397.16
2022-11-19T00:12:10.170Z,99404.41
2022-11-19T00:13:14.627Z,99398.00
2022-11-19T00:14:28.279Z,99408.91
2022-11-19T00:15:32.305Z,99401.34
2022-11-19T00:16:33.762Z,99398.25
2022-11-19T00:17:35.715Z,99399.91
2022-11-19T00:18:43.255Z,99403.53
2022-11-19T00:19:44.706Z,99397.94
2022-11-19T00:20:51.986Z,99393.19
2022-11-19T00:21:53.450Z,99395.97
2022-11-19T00:22:58.442Z,99392.34
2022-11-19T00:23:59.903Z,99397.63
2022-11-19T00:25:01.369Z,99392.66
2022-11-19T00:26:09.889Z,99395.16
2022-11-19T00:27:11.417Z,99401.88
2022-11-19T00:28:18.231Z,99399.38
2022-11-19T00:30:53.208Z,99400.75
2022-11-19T00:31:59.709Z,99398.81
2022-11-19T00:33:01.217Z,99393.22
2022-11-19T00:34:02.836Z,99401.09
2022-11-19T00:35:07.119Z,99393.81
2022-11-19T00:36:09.324Z,99397.16
2022-11-19T00:37:18.182Z,99396.59
2022-11-19T00:38:25.990Z,99399.13
2022-11-19T00:39:31.938Z,99391.56
2022-11-19T00:40:33.507Z,99393.22
2022-11-19T00:41:42.302Z,99396.03
2022-11-19T00:43:11.524Z,99396.59
2022-11-19T00:44:15.794Z,99396.59
2022-11-19T00:45:18.719Z,99397.13
2022-11-19T00:46:20.971Z,99397.41
2022-11-19T00:47:24.993Z,99392.66
2022-11-19T00:48:29.255Z,99393.22
2022-11-19T00:49:30.690Z,99397.16
2022-11-19T00:50:37.349Z,99388.78
2022-11-19T00:51:39.682Z,99391.56
2022-11-19T00:52:44.095Z,99393.22
2022-11-19T00:53:48.039Z,99383.88
2022-11-19T00:54:49.478Z,99389.97
2022-11-19T00:56:00.815Z,99398.88
2022-11-19T00:57:02.738Z,99395.25
2022-11-19T00:58:04.189Z,99396.06
2022-11-19T00:59:16.231Z,99391.91
2022-11-19T01:00:17.791Z,99385.19
2022-11-19T01:01:22.957Z,99389.44
2022-11-19T01:02:31.794Z,99391.91
2022-11-19T01:03:36.219Z,99393.59
2022-11-19T01:04:40.576Z,99388.00
2022-11-19T01:05:42.766Z,99387.16
2022-11-19T01:06:44.310Z,99388.00
2022-11-19T01:07:46.533Z,99391.63
2022-11-19T01:08:49.144Z,99390.47
2022-11-19T01:11:21.129Z,99396.06
2022-11-19T01:12:22.696Z,99386.09
2022-11-19T01:13:42.499Z,99393.41
2022-11-19T01:14:46.022Z,99393.94
2022-11-19T01:15:50.538Z,99404.28
2022-11-19T01:16:54.510Z,99398.47
2022-11-19T01:17:55.956Z,99406.31
2022-11-19T01:19:02.899Z,99403.53
2022-11-19T01:20:07.065Z,99400.97
2022-11-19T01:21:09.070Z,99401.56
2022-11-19T01:22:10.565Z,99406.03
2022-11-19T01:23:20.908Z,99405.72
2022-11-19T01:24:22.363Z,99405.50
2022-11-19T01:25:23.890Z,99404.13
2022-11-19T01:26:31.356Z,99408.59
2022-11-19T01:27:35.627Z,99405.50
2022-11-19T01:28:37.120Z,99405.19
2022-11-19T01:29:38.713Z,99404.06
2022-11-19T01:30:40.697Z,99408.00
2022-11-19T01:31:52.403Z,99406.09
2022-11-19T01:32:53.878Z,99415.88
2022-11-19T01:34:04.326Z,99410.28
2022-11-19T01:35:11.522Z,99410.03
2022-11-19T01:36:14.642Z,99406.09
2022-11-19T01:37:16.130Z,99408.59
2022-11-19T01:38:17.573Z,99410.03
2022-11-19T01:39:19.820Z,99414.22
2022-11-19T01:40:23.782Z,99407.81
2022-11-19T01:41:32.152Z,99413.09
2022-11-19T01:42:53.560Z,99410.03
2022-11-19T01:43:58.511Z,99408.34
2022-11-19T01:45:01.264Z,99410.84
2022-11-19T01:46:02.731Z,99405.28
2022-11-19T01:47:04.238Z,99410.84
2022-11-19T01:48:11.634Z,99420.38
2022-11-19T01:49:15.154Z,99411.69
2022-11-19T01:50:24.223Z,99405.28
2022-11-19T01:51:32.981Z,99407.75
2022-11-19T01:52:40.787Z,99404.66
2022-11-19T01:53:42.258Z,99412.75
2022-11-19T01:54:51.853Z,99403.53
2022-11-19T01:56:04.133Z,99411.09
2022-11-19T01:57:06.720Z,99399.91
2022-11-19T01:58:10.812Z,99407.47
2022-11-19T01:59:14.463Z,99410.25
2022-11-19T02:00:16.269Z,99409.94
2022-11-19T02:01:17.743Z,99408.81
2022-11-19T02:02:24.116Z,99407.16
2022-11-19T02:03:28.069Z,99406.31
2022-11-19T02:05:57.346Z,99402.41
2022-11-19T02:06:58.852Z,99399.28
2022-11-19T02:08:00.358Z,99405.72
2022-11-19T02:09:01.845Z,99406.56
2022-11-19T02:10:03.413Z,99407.38
2022-11-19T02:11:16.826Z,99411.00
2022-11-19T02:12:36.951Z,99401.78
2022-11-19T02:13:57.023Z,99413.50
2022-11-19T02:14:58.454Z,99405.13
2022-11-19T02:16:21.707Z,99413.50
2022-11-19T02:17:50.592Z,99404.28
2022-11-19T02:19:10.907Z,99400.34
2022-11-19T02:20:36.699Z,99412.97
2022-11-19T02:22:04.594Z,99399.28
2022-11-19T02:23:17.927Z,99407.75
2022-11-19T02:24:41.303Z,99403.00
2022-11-19T02:25:49.603Z,99406.09
2022-11-19T02:26:56.988Z,99406.31
2022-11-19T02:28:19.743Z,99411.91
2022-11-19T02:29:30.168Z,99409.13
2022-11-19T02:30:38.537Z,99406.31
2022-11-19T02:33:09.812Z,99403.22
2022-11-19T02:34:12.720Z,99408.50
2022-11-19T02:35:19.197Z,99405.19
2022-11-19T02:36:25.558Z,99412.13
2022-11-19T02:37:34.334Z,99413.56
2022-11-19T02:38:47.838Z,99402.94
2022-11-19T02:39:53.111Z,99404.72
2022-11-19T02:41:22.698Z,99409.19
2022-11-19T02:42:34.896Z,99408.59
2022-11-19T02:43:45.910Z,99410.47
2022-11-19T02:45:02.623Z,99412.13
2022-11-19T02:46:07.877Z,99410.19
2022-11-19T02:47:12.750Z,99416.28
2022-11-19T02:48:24.353Z,99410.44
2022-11-19T02:49:44.400Z,99416.84
2022-11-19T02:50:49.142Z,99421.31
2022-11-19T02:51:50.623Z,99415.72
2022-11-19T02:52:52.084Z,99424.09
2022-11-19T02:53:54.989Z,99414.59
2022-11-19T02:54:58.887Z,99419.88
2022-11-19T02:56:14.718Z,99414.28
2022-11-19T02:57:16.197Z,99418.75
2022-11-19T02:58:37.629Z,99420.72
2022-11-19T02:59:59.721Z,99418.53
2022-11-19T03:01:27.928Z,99420.19
2022-11-19T03:03:01.401Z,99424.63
2022-11-19T03:04:24.678Z,99421.31
2022-11-19T03:05:29.923Z,99419.66
2022-11-19T03:06:35.022Z,99417.97
2022-11-19T03:07:46.978Z,99416.84
2022-11-19T03:08:51.801Z,99425.25
2022-11-19T03:10:00.252Z,99421.31
2022-11-19T03:11:03.484Z,99424.09
2022-11-19T03:12:14.153Z,99422.97
2022-11-19T03:13:36.884Z,99424.09
2022-11-19T03:15:15.842Z,99428.56
2022-11-19T03:16:54.582Z,99430.84
2022-11-19T03:17:58.686Z,99427.47
2022-11-19T03:19:19.653Z,99428.31
2022-11-19T03:20:30.260Z,99428.09
2022-11-19T03:21:33.551Z,99430.06
2022-11-19T03:22:39.393Z,99443.19
2022-11-19T03:23:49.664Z,99441.53
2022-11-19T03:24:52.741Z,99435.13
2022-11-19T03:25:58.759Z,99444.31
2022-11-19T03:27:02.283Z,99453.84
2022-11-19T03:28:05.140Z,99448.25
2022-11-19T03:29:15.146Z,99438.75
2022-11-19T03:30:19.990Z,99440.69
2022-11-19T03:31:21.814Z,99443.19
2022-11-19T03:32:44.439Z,99436.78
2022-11-19T03:33:46.727Z,99440.41
2022-11-19T03:34:48.605Z,99449.63
2022-11-19T03:35:51.456Z,99440.09
2022-11-19T03:36:53.887Z,99437.00
2022-11-19T03:37:58.622Z,99442.59
2022-11-19T03:39:02.256Z,99443.44
2022-11-19T03:40:03.862Z,99439.78
2022-11-19T03:41:05.938Z,99444.25
2022-11-19T03:42:13.113Z,99438.66
2022-11-19T03:43:15.033Z,99437.84
2022-11-19T03:45:40.378Z,99447.13
2022-11-19T03:47:57.189Z,99448.25
2022-11-19T03:49:01.031Z,99445.53
2022-11-19T03:50:19.651Z,99455.59
2022-11-19T03:51:26.299Z,99455.59
2022-11-19T03:52:36.549Z,99451.69
2022-11-19T03:53:39.839Z,99462.88
2022-11-19T03:54:42.856Z,99464.91
2022-11-19T03:55:49.909Z,99468.88
2022-11-19T03:56:52.969Z,99471.97
2022-11-19T03:57:54.465Z,99475.88
2022-11-19T03:59:00.350Z,99471.97
2022-11-19T04:00:02.014Z,99473.09
2022-11-19T04:01:14.869Z,99477.56
2022-11-19T04:02:16.376Z,99479.81
2022-11-19T04:03:17.986Z,99482.59
2022-11-19T04:04:52.227Z,99479.56
2022-11-19T04:05:55.817Z,99484.34
2022-11-19T04:07:09.427Z,99486.59
2022-11-19T04:08:10.955Z,99492.22
2022-11-19T04:09:23.277Z,99484.44
2022-11-19T04:10:26.777Z,99490.00
2022-11-19T04:11:28.275Z,99493.94
2022-11-19T04:12:32.427Z,99490.00
2022-11-19T04:13:33.883Z,99498.69
2022-11-19T04:14:35.809Z,99504.88
2022-11-19T04:15:46.072Z,99498.47
2022-11-19T04:16:47.540Z,99500.78
2022-11-19T04:18:07.131Z,99508.06
2022-11-19T04:19:08.643Z,99501.63
2022-11-19T04:20:10.991Z,99508.59
2022-11-19T04:21:15.304Z,99509.19
2022-11-19T04:22:16.859Z,99499.22
2022-11-19T04:23:18.299Z,99512.72
2022-11-19T04:24:19.865Z,99515.56
2022-11-19T04:25:21.383Z,99515.03
2022-11-19T04:27:45.413Z,99504.19
2022-11-19T04:28:53.262Z,99512.59
2022-11-19T04:29:54.808Z,99512.34
2022-11-19T04:31:00.552Z,99515.97
2022-11-19T04:32:10.683Z,99510.75
2022-11-19T04:33:19.243Z,99513.53
2022-11-19T04:34:20.669Z,99515.50
2022-11-19T04:35:26.088Z,99526.91
2022-11-19T04:36:27.556Z,99520.47
2022-11-19T04:37:32.473Z,99515.16
2022-11-19T04:38:34.819Z,99512.91
2022-11-19T04:39:39.889Z,99516.81
2022-11-19T04:40:43.906Z,99510.41
2022-11-19T04:41:45.464Z,99521.31
2022-11-19T04:42:49.967Z,99515.19
2022-11-19T04:44:00.100Z,99520.25
2022-11-19T04:45:07.726Z,99522.75
2022-11-19T04:46:09.168Z,99520.78
2022-11-19T04:47:15.788Z,99516.03
2022-11-19T04:48:20.089Z,99514.09
2022-11-19T04:49:21.728Z,99525.25
2022-11-19T04:50:26.460Z,99514.94
2022-11-19T04:51:29.127Z,99517.41
2022-11-19T04:52:34.098Z,99518.25
2022-11-19T04:53:37.954Z,99512.97
2022-11-19T04:54:59.177Z,99510.22
2022-11-19T04:56:02.922Z,99500.19
2022-11-19T04:57:07.111Z,99499.34
2022-11-19T04:58:08.638Z,99498.53
2022-11-19T04:59:12.829Z,99496.84
2022-11-19T05:00:14.657Z,99491.00
2022-11-19T05:01:18.555Z,99495.53
2022-11-19T05:02:28.440Z,99499.69
2022-11-19T05:03:29.959Z,99501.69
2022-11-19T05:04:31.431Z,99503.94
2022-11-19T05:05:32.882Z,99493.63
2022-11-19T05:06:36.739Z,99507.03
2022-11-19T05:07:41.000Z,99510.38
2022-11-19T05:08:45.173Z,99504.22
2022-11-19T05:09:46.614Z,99507.03
2022-11-19T05:10:48.081Z,99506.19
2022-11-19T05:11:58.745Z,99505.91
2022-11-19T05:13:03.179Z,99512.06
2022-11-19T05:14:04.623Z,99508.72
2022-11-19T05:15:06.293Z,99504.56
2022-11-19T05:16:07.817Z,99515.41
2022-11-19T05:17:09.320Z,99506.50
2022-11-19T05:18:13.389Z,99516.56
2022-11-19T05:19:25.192Z,99513.78
2022-11-19T05:20:26.883Z,99515.44
2022-11-19T05:21:31.320Z,99510.16
2022-11-19T05:22:32.776Z,99505.41
2022-11-19T05:23:34.321Z,99503.75
2022-11-19T05:24:44.162Z,99509.31
2022-11-19T05:25:46.354Z,99518.53
2022-11-19T05:26:50.610Z,99507.94
2022-11-19T05:28:17.802Z,99514.94
2022-11-19T05:29:19.539Z,99507.69
2022-11-19T05:30:21.328Z,99513.84
2022-11-19T05:32:47.354Z,99507.69
2022-11-19T05:33:50.923Z,99504.63
2022-11-19T05:34:54.977Z,99498.50
2022-11-19T05:35:56.417Z,99503.81
2022-11-19T05:37:00.598Z,99508.25
2022-11-19T05:38:04.958Z,99509.41
2022-11-19T05:39:06.865Z,99504.38
2022-11-19T05:40:08.583Z,99519.41
2022-11-19T05:41:12.791Z,99516.06
2022-11-19T05:42:20.158Z,99514.66
2022-11-19T05:43:24.202Z,99518.28
2022-11-19T05:44:34.304Z,99515.25
2022-11-19T05:45:38.248Z,99516.06
2022-11-19T05:46:39.742Z,99513.28
2022-11-19T05:47:44.664Z,99517.22
2022-11-19T05:48:49.831Z,99516.38
2022-11-19T05:49:54.090Z,99521.66
2022-11-19T05:51:01.626Z,99515.81
2022-11-19T05:52:03.115Z,99522.25
2022-11-19T05:53:08.077Z,99521.69
2022-11-19T05:54:10.742Z,99518.06
2022-11-19T05:55:12.278Z,99521.97
2022-11-19T05:56:13.789Z,99518.59
2022-11-19T05:57:16.875Z,99513.31
2022-11-19T05:58:18.335Z,99522.25
2022-11-19T05:59:21.104Z,99520.00
2022-11-19T06:00:22.883Z,99523.09
2022-11-19T06:01:27.749Z,99520.59
2022-11-19T06:02:29.958Z,99518.09
2022-11-19T06:03:31.664Z,99524.75
2022-11-19T06:04:34.917Z,99516.13
2022-11-19T06:05:40.254Z,99517.22
2022-11-19T06:06:42.870Z,99515.84
2022-11-19T06:07:47.096Z,99514.44
2022-11-19T06:08:48.821Z,99518.59
2022-11-19T06:09:53.158Z,99522.25
2022-11-19T06:10:56.070Z,99528.94
2022-11-19T06:11:57.520Z,99523.38
2022-11-19T06:13:02.973Z,99527.25
2022-11-19T06:14:04.467Z,99532.84
2022-11-19T06:15:06.709Z,99523.06
2022-11-19T06:16:14.078Z,99524.50
2022-11-19T06:17:40.406Z,99522.53
2022-11-19T06:18:46.175Z,99538.41
2022-11-19T06:19:47.624Z,99541.47
2022-11-19T06:20:50.913Z,99535.91
2022-11-19T06:22:05.206Z,99532.84
2022-11-19T06:23:06.637Z,99530.59
2022-11-19T06:24:11.016Z,99525.56
2022-11-19T06:25:12.517Z,99528.94
2022-11-19T06:26:21.774Z,99534.22
2022-11-19T06:27:23.384Z,99532.81
2022-11-19T06:28:24.926Z,99536.19
2022-11-19T06:29:26.370Z,99537.31
2022-11-19T06:30:28.049Z,99538.41
2022-11-19T06:31:29.560Z,99540.09
2022-11-19T06:32:31.070Z,99540.63
2022-11-19T06:33:32.910Z,99541.75
2022-11-19T06:34:34.359Z,99542.03
2022-11-19T06:36:53.534Z,99542.88
2022-11-19T06:38:02.606Z,99541.78
2022-11-19T06:39:04.900Z,99539.25
2022-11-19T06:40:09.809Z,99549.81
2022-11-19T06:41:11.903Z,99552.34
2022-11-19T06:42:32.229Z,99549.28
2022-11-19T06:43:33.815Z,99559.84
2022-11-19T06:44:35.516Z,99555.94
2022-11-19T06:45:36.978Z,99556.81
2022-11-19T06:46:38.517Z,99559.59
2022-11-19T06:47:40.220Z,99568.78
2022-11-19T06:48:47.717Z,99569.63
2022-11-19T06:49:51.282Z,99560.16
2022-11-19T06:50:52.714Z,99561.78
2022-11-19T06:51:54.228Z,99566.53
2022-11-19T06:52:55.914Z,99569.88
2022-11-19T06:53:59.942Z,99568.50
2022-11-19T06:55:01.473Z,99564.06
2022-11-19T06:56:06.352Z,99571.81
2022-11-19T06:57:07.909Z,99574.88
2022-11-19T06:58:09.403Z,99574.06
2022-11-19T06:59:10.878Z,99570.16
2022-11-19T07:00:13.325Z,99576.84
2022-11-19T07:01:17.876Z,99572.94
2022-11-19T07:02:21.582Z,99576.00
2022-11-19T07:03:25.937Z,99581.31
2022-11-19T07:04:29.690Z,99581.59
2022-11-19T07:05:34.242Z,99581.84
2022-11-19T07:06:43.213Z,99574.88
2022-11-19T07:07:44.690Z,99575.19
2022-11-19T07:08:49.265Z,99575.72
2022-11-19T07:09:50.898Z,99580.75
2022-11-19T07:11:03.763Z,99584.09
2022-11-19T07:12:05.623Z,99577.94
2022-11-19T07:13:07.182Z,99577.94
2022-11-19T07:14:17.731Z,99586.59
2022-11-19T07:15:26.325Z,99579.09
2022-11-19T07:16:29.404Z,99582.16
2022-11-19T07:17:30.875Z,99589.66
2022-11-19T07:18:32.340Z,99586.31
2022-11-19T07:19:33.894Z,99593.28
2022-11-19T07:20:35.348Z,99590.22
2022-11-19T07:21:37.036Z,99584.09
2022-11-19T07:22:38.478Z,99589.94
2022-11-19T07:23:40.033Z,99595.22
2022-11-19T07:24:50.566Z,99596.06
2022-11-19T07:25:53.176Z,99600.25
2022-11-19T07:26:55.019Z,99599.69
2022-11-19T07:27:56.524Z,99596.63
2022-11-19T07:29:04.823Z,99599.13
2022-11-19T07:31:24.571Z,99599.41
2022-11-19T07:32:26.363Z,99607.47
2022-11-19T07:33:30.927Z,99603.03
2022-11-19T07:34:32.391Z,99598.00
2022-11-19T07:35:33.826Z,99599.69
2022-11-19T07:36:35.508Z,99603.03
2022-11-19T07:37:39.636Z,99607.19
2022-11-19T07:38:52.942Z,99610.81
2022-11-19T07:39:57.054Z,99607.19
2022-11-19T07:41:00.918Z,99605.25
2022-11-19T07:42:21.125Z,99612.50
2022-11-19T07:43:34.309Z,99619.16
2022-11-19T07:44:35.919Z,99607.19
2022-11-19T07:45:37.458Z,99608.56
2022-11-19T07:46:39.809Z,99618.88
2022-11-19T07:47:41.269Z,99609.69
2022-11-19T07:48:42.739Z,99614.69
2022-11-19T07:49:44.970Z,99614.13
2022-11-19T07:50:56.353Z,99615.25
2022-11-19T07:52:04.164Z,99621.13
2022-11-19T07:53:06.086Z,99615.81
2022-11-19T07:54:09.268Z,99624.72
2022-11-19T07:55:13.184Z,99614.44
2022-11-19T07:56:16.993Z,99630.84
2022-11-19T07:57:24.594Z,99623.06
2022-11-19T07:58:34.730Z,99627.53
2022-11-19T07:59:39.324Z,99629.19
2022-11-19T08:00:40.943Z,99626.97
2022-11-19T08:01:44.725Z,99628.34
2022-11-19T08:03:02.479Z,99625.84
2022-11-19T08:04:05.267Z,99629.75
2022-11-19T08:05:06.782Z,99629.75
2022-11-19T08:06:08.302Z,99642.84
2022-11-19T08:07:10.088Z,99634.72
2022-11-19T08:08:12.925Z,99639.22
2022-11-19T08:09:22.591Z,99637.53
2022-11-19T08:10:31.772Z,99642.53
2022-11-19T08:11:33.503Z,99640.88
2022-11-19T08:12:38.087Z,99643.38
2022-11-19T08:13:44.902Z,99650.31
2022-11-19T08:14:46.973Z,99647.00
2022-11-19T08:15:48.526Z,99653.34
2022-11-19T08:17:08.746Z,99645.28
2022-11-19T08:18:17.060Z,99643.88
2022-11-19T08:19:18.892Z,99649.97
2022-11-19T08:20:20.961Z,99654.72
2022-11-19T08:21:31.627Z,99657.50
2022-11-19T08:22:33.359Z,99656.06
2022-11-19T08:23:35.074Z,99656.63
2022-11-19T08:24:36.547Z,99660.78
2022-11-19T08:25:44.395Z,99664.94
2022-11-19T08:26:48.162Z,99656.00
2022-11-19T08:27:49.711Z,99665.75
2022-11-19T08:28:57.238Z,99661.81
2022-11-19T08:29:58.701Z,99661.53
2022-11-19T08:31:12.147Z,99661.25
2022-11-19T08:32:22.009Z,99664.03
2022-11-19T08:33:30.857Z,99666.00
2022-11-19T08:34:32.340Z,99673.25
2022-11-19T08:35:38.037Z,99678.81
2022-11-19T08:36:39.692Z,99676.28
2022-11-19T08:37:44.286Z,99680.22
2022-11-19T08:38:48.526Z,99684.97
2022-11-19T08:39:49.987Z,99668.53
2022-11-19T08:41:14.080Z,99669.66
2022-11-19T08:42:35.470Z,99672.44
2022-11-19T08:43:36.958Z,99673.00
2022-11-19T08:44:38.406Z,99681.63
2022-11-19T08:47:04.977Z,99676.34
2022-11-19T08:48:06.987Z,99673.56
2022-11-19T08:50:27.778Z,99676.94
2022-11-19T08:51:29.274Z,99684.44
2022-11-19T08:52:31.022Z,99672.72
2022-11-19T08:53:32.631Z,99686.94
2022-11-19T08:54:43.223Z,99687.78
2022-11-19T08:55:52.051Z,99682.50
2022-11-19T08:56:53.575Z,99687.50
2022-11-19T08:58:04.945Z,99667.16
2022-11-19T08:59:07.021Z,99695.59
2022-11-19T09:00:18.083Z,99690.28
2022-11-19T09:01:19.635Z,99690.03
2022-11-19T09:02:27.050Z,99690.84
2022-11-19T09:03:28.522Z,99697.53
2022-11-19T09:04:29.958Z,99700.03
2022-11-19T09:05:36.766Z,99701.97
2022-11-19T09:06:39.989Z,99697.81
2022-11-19T09:07:41.589Z,99705.88
2022-11-19T09:08:45.589Z,99702.47
2022-11-19T09:09:49.937Z,99699.13
2022-11-19T09:10:52.989Z,99701.59
2022-11-19T09:11:55.998Z,99699.38
2022-11-19T09:12:57.963Z,99698.28
2022-11-19T09:14:04.641Z,99696.03
2022-11-19T09:15:06.546Z,99700.75
2022-11-19T09:16:16.785Z,99703.53
2022-11-19T09:17:18.267Z,99701.06
2022-11-19T09:18:19.720Z,99701.59
2022-11-19T09:19:24.077Z,99704.91
2022-11-19T09:20:25.602Z,99707.09
2022-11-19T09:21:27.086Z,99702.91
2022-11-19T09:22:33.894Z,99705.13
2022-11-19T09:23:38.120Z,99705.97
2022-11-19T09:24:39.574Z,99707.84
2022-11-19T09:25:41.080Z,99711.19
2022-11-19T09:26:48.857Z,99700.06
2022-11-19T09:27:53.246Z,99715.06
2022-11-19T09:28:57.025Z,99710.34
2022-11-19T09:29:58.510Z,99717.56
2022-11-19T09:31:00.907Z,99718.13
2022-11-19T09:33:27.598Z,99732.38
2022-11-19T09:34:29.097Z,99731.81
2022-11-19T09:35:30.601Z,99731.78
2022-11-19T09:36:41.251Z,99726.81
2022-11-19T09:37:42.983Z,99728.47
2022-11-19T09:38:45.112Z,99729.81
2022-11-19T09:39:46.565Z,99732.88
2022-11-19T09:40:57.267Z,99733.41
2022-11-19T09:42:02.710Z,99743.41
2022-11-19T09:43:13.963Z,99738.91
2022-11-19T09:44:38.655Z,99739.44
2022-11-19T09:46:16.819Z,99750.28
2022-11-19T09:47:20.711Z,99741.66
2022-11-19T09:48:55.784Z,99743.91
2022-11-19T09:49:57.198Z,99741.13
2022-11-19T09:51:04.739Z,99743.09
2022-11-19T09:52:07.014Z,99742.31
2022-11-19T09:53:17.737Z,99746.22
2022-11-19T09:54:19.574Z,99747.88
2022-11-19T09:55:28.914Z,99749.03
2022-11-19T09:56:35.142Z,99746.84
2022-11-19T09:57:37.031Z,99754.34
2022-11-19T09:58:40.435Z,99750.19
2022-11-19T09:59:44.443Z,99748.22
2022-11-19T10:00:45.957Z,99749.84
2022-11-19T10:01:47.428Z,99754.00
2022-11-19T10:02:56.207Z,99748.44
2022-11-19T10:03:57.771Z,99744.81
2022-11-19T10:05:01.605Z,99747.06
2022-11-19T10:06:21.802Z,99744.53
2022-11-19T10:07:42.186Z,99746.75
2022-11-19T10:09:04.116Z,99754.53
2022-11-19T10:10:24.097Z,99752.88
2022-11-19T10:11:38.328Z,99749.50
2022-11-19T10:13:11.673Z,99753.69
2022-11-19T10:14:33.505Z,99754.75
2022-11-19T10:15:55.210Z,99750.03
2022-11-19T10:17:11.671Z,99761.19
2022-11-19T10:18:22.098Z,99761.69
2022-11-19T10:19:42.174Z,99758.38
2022-11-19T10:21:14.347Z,99765.31
2022-11-19T10:22:24.493Z,99753.38
2022-11-19T10:23:45.981Z,99758.41
2022-11-19T10:24:53.638Z,99761.47
2022-11-19T10:25:57.263Z,99757.00
2022-11-19T10:27:18.900Z,99757.25
2022-11-19T10:28:21.998Z,99758.41
2022-11-19T10:29:23.538Z,99757.88
2022-11-19T10:30:32.718Z,99761.22
2022-11-19T10:31:37.522Z,99760.69
2022-11-19T10:32:43.267Z,99755.13
2022-11-19T10:33:47.657Z,99755.13
2022-11-19T10:34:49.323Z,99759.56
2022-11-19T10:35:51.992Z,99762.91
2022-11-19T10:37:05.975Z,99750.66
2022-11-19T10:38:14.398Z,99753.19
2022-11-19T10:40:57.566Z,99753.63
2022-11-19T10:42:18.991Z,99758.63
2022-11-19T10:43:23.779Z,99752.81
2022-11-19T10:44:45.689Z,99753.38
2022-11-19T10:45:47.153Z,99755.38
2022-11-19T10:46:48.630Z,99750.66
2022-11-19T10:48:09.222Z,99759.56
2022-11-19T10:49:11.119Z,99757.03
2022-11-19T10:50:16.061Z,99753.72
2022-11-19T10:51:31.170Z,99759.56
2022-11-19T10:52:42.803Z,99756.50
2022-11-19T10:53:47.841Z,99760.13
2022-11-19T10:54:50.427Z,99761.78
2022-11-19T10:55:54.722Z,99757.91
2022-11-19T10:56:56.462Z,99756.78
2022-11-19T10:58:03.846Z,99762.69
2022-11-19T10:59:11.819Z,99757.41
2022-11-19T11:00:15.670Z,99763.16
2022-11-19T11:01:21.844Z,99756.41
2022-11-19T11:02:47.305Z,99757.53
2022-11-19T11:03:49.618Z,99754.44
2022-11-19T11:05:25.653Z,99762.22
2022-11-19T11:06:29.505Z,99761.16
2022-11-19T11:07:51.083Z,99753.66
2022-11-19T11:08:58.436Z,99747.78
2022-11-19T11:10:02.363Z,99749.19
2022-11-19T11:11:03.923Z,99750.03
2022-11-19T11:12:39.127Z,99750.34
2022-11-19T11:14:04.170Z,99744.47
2022-11-19T11:15:25.594Z,99748.91
2022-11-19T11:16:47.525Z,99750.84
2022-11-19T11:17:49.538Z,99748.34
2022-11-19T11:18:56.845Z,99752.81
2022-11-19T11:19:59.075Z,99743.97
2022-11-19T11:21:03.371Z,99760.09
2022-11-19T11:22:05.133Z,99760.09
2022-11-19T11:23:08.701Z,99759.25
2022-11-19T11:24:13.183Z,99756.16
2022-11-19T11:25:21.758Z,99763.97
2022-11-19T11:26:29.507Z,99756.22
2022-11-19T11:27:33.281Z,99755.66
2022-11-19T11:29:08.738Z,99762.06
2022-11-19T11:30:12.916Z,99761.53
2022-11-19T11:31:15.043Z,99753.78
2022-11-19T11:33:00.520Z,99761.78
2022-11-19T11:34:02.435Z,99756.22
2022-11-19T11:35:22.786Z,99767.91
2022-11-19T11:36:25.566Z,99762.34
2022-11-19T11:37:27.186Z,99757.91
2022-11-19T11:38:31.470Z,99760.69
2022-11-19T11:39:36.418Z,99760.69
2022-11-19T11:40:37.887Z,99764.03
2022-11-19T11:43:01.402Z,99759.56
2022-11-19T11:44:07.177Z,99755.69
2022-11-19T11:45:14.448Z,99765.72
2022-11-19T11:46:15.956Z,99752.06
2022-11-19T11:47:18.207Z,99756.28
2022-11-19T11:48:22.729Z,99761.84
2022-11-19T11:49:27.504Z,99765.72
2022-11-19T11:50:31.896Z,99765.72
2022-11-19T11:51:34.745Z,99768.50
2022-11-19T11:52:52.212Z,99764.91
2022-11-19T11:54:17.980Z,99763.50
2022-11-19T11:55:25.152Z,99763.50
2022-11-19T11:56:26.703Z,99768.25
2022-11-19T11:57:28.279Z,99771.81
2022-11-19T11:58:35.606Z,99766.50
2022-11-19T11:59:37.068Z,99759.00
2022-11-19T12:00:45.020Z,99767.34
2022-11-19T12:01:56.153Z,99765.94
2022-11-19T12:03:04.853Z,99770.69
2022-11-19T12:04:09.446Z,99766.78
2022-11-19T12:05:15.170Z,99767.63
2022-11-19T12:06:16.760Z,99768.19
2022-11-19T12:07:37.339Z,99766.25
2022-11-19T12:08:44.720Z,99770.69
2022-11-19T12:09:55.591Z,99769.53
2022-11-19T12:10:59.650Z,99763.97
2022-11-19T12:12:05.466Z,99766.75
2022-11-19T12:13:16.103Z,99765.03
2022-11-19T12:14:19.599Z,99756.69
2022-11-19T12:15:26.629Z,99748.91
2022-11-19T12:16:34.435Z,99755.50
2022-11-19T12:17:35.879Z,99759.91
2022-11-19T12:18:49.498Z,99762.69
2022-11-19T12:20:03.660Z,99756.00
2022-11-19T12:21:08.739Z,99760.47
2022-11-19T12:22:19.083Z,99751.59
2022-11-19T12:23:39.806Z,99764.09
2022-11-19T12:24:48.176Z,99753.31
2022-11-19T12:26:01.802Z,99766.63
2022-11-19T12:27:23.532Z,99759.38
2022-11-19T12:28:28.032Z,99761.06
2022-11-19T12:29:36.877Z,99756.59
2022-11-19T12:30:47.498Z,99764.44
2022-11-19T12:31:52.015Z,99766.94
2022-11-19T12:32:57.994Z,99758.34
2022-11-19T12:34:15.322Z,99757.81
2022-11-19T12:35:21.406Z,99754.72
2022-11-19T12:36:25.437Z,99755.00
2022-11-19T12:37:29.967Z,99755.00
2022-11-19T12:38:53.922Z,99747.50
2022-11-19T12:39:59.053Z,99744.44
2022-11-19T12:41:19.260Z,99743.03
2022-11-19T12:42:39.578Z,99740.00
2022-11-19T12:43:56.312Z,99754.16
2022-11-19T12:45:20.005Z,99757.44
2022-11-19T12:46:40.076Z,99767.78
2022-11-19T12:47:44.954Z,99767.25
2022-11-19T12:48:52.311Z,99759.47
2022-11-19T12:50:15.494Z,99766.13
2022-11-19T12:51:33.122Z,99766.69
2022-11-19T12:52:35.551Z,99771.59
2022-11-19T12:53:55.751Z,99769.53
2022-11-19T12:54:58.098Z,99777.59
2022-11-19T12:56:18.224Z,99766.41
2022-11-19T12:57:45.559Z,99774.22
2022-11-19T12:58:53.758Z,99779.25
2022-11-19T12:59:58.182Z,99774.22
2022-11-19T13:01:00.771Z,99776.47
2022-11-19T13:02:05.095Z,99770.34
2022-11-19T13:03:09.099Z,99775.94
2022-11-19T13:04:16.333Z,99776.00
2022-11-19T13:05:22.568Z,99779.34
2022-11-19T13:06:35.526Z,99773.78
2022-11-19T13:07:37.808Z,99782.13
2022-11-19T13:08:45.015Z,99777.72
2022-11-19T13:10:00.522Z,99781.03
2022-11-19T13:11:06.274Z,99780.47
2022-11-19T13:12:14.449Z,99780.41
2022-11-19T13:13:16.873Z,99777.03
2022-11-19T13:14:18.322Z,99785.94
2022-11-19T13:15:20.358Z,99780.97
2022-11-19T13:16:21.904Z,99784.28
2022-11-19T13:17:28.012Z,99783.75
2022-11-19T13:18:30.374Z,99776.84
2022-11-19T13:19:48.181Z,99779.34
2022-11-19T13:20:50.437Z,99775.72
2022-11-19T13:22:03.950Z,99753.38
2022-11-19T13:23:05.617Z,99776.50
2022-11-19T13:24:15.046Z,99776.50
2022-11-19T13:25:47.614Z,99777.34
2022-11-19T13:26:49.109Z,99774.84